Time;durP1;ratioP1;P1;durP2;ratioP2;P2;SDS_P1;SDS_P2;PMS_P1;PMS_P2;Temp;Humidity;BMP_temperature;BMP_pressure;BME280_temperature;BME280_humidity;BME280_pressure;Samples;Min_cycle;Max_cycle;Signal;HPM_P1;HPM_P2
2022/07/27 00:01:38;;;;;;;6.55;2.60;;;23.40;85.50;;;;;;5092192;28;20031;-75
2022/07/27 00:04:04;;;;;;;2.90;2.30;;;23.40;85.70;;;;;;5107889;28;20024;-75
2022/07/27 00:06:30;;;;;;;4.75;2.80;;;23.40;85.70;;;;;;5092609;28;20089;-75
2022/07/27 00:08:56;;;;;;;4.22;2.70;;;23.30;85.40;;;;;;5092085;28;20016;-75
2022/07/27 00:11:22;;;;;;;3.33;2.33;;;23.30;85.40;;;;;;5090910;28;20069;-75
2022/07/27 00:13:47;;;;;;;4.43;2.20;;;23.30;85.50;;;;;;5092391;28;20028;-75
2022/07/27 00:16:13;;;;;;;3.83;2.60;;;23.20;85.70;;;;;;5092028;28;20389;-75
2022/07/27 00:18:39;;;;;;;5.15;2.92;;;23.20;85.70;;;;;;5092003;28;20024;-76
2022/07/27 00:21:05;;;;;;;4.07;2.50;;;23.20;86.20;;;;;;5091879;28;20040;-75
2022/07/27 00:23:31;;;;;;;2.63;2.22;;;23.20;86.50;;;;;;5092243;28;20100;-75
2022/07/27 00:25:56;;;;;;;2.70;2.50;;;23.20;86.70;;;;;;5091959;28;20028;-75
2022/07/27 00:28:22;;;;;;;3.67;2.30;;;23.20;86.60;;;;;;5090609;28;20096;-75
2022/07/27 00:30:48;;;;;;;2.38;2.17;;;23.10;86.70;;;;;;5091760;28;20028;-75
2022/07/27 00:33:14;;;;;;;5.57;2.65;;;23.10;86.40;;;;;;5094385;28;20161;-75
2022/07/27 00:35:39;;;;;;;3.92;2.35;;;23.00;86.50;;;;;;5112074;28;20083;-76
2022/07/27 00:38:05;;;;;;;4.07;2.70;;;23.00;86.60;;;;;;5112237;28;20020;-75
2022/07/27 00:40:31;;;;;;;4.85;2.65;;;23.00;86.80;;;;;;5112129;28;20016;-75
2022/07/27 00:42:57;;;;;;;3.35;2.78;;;22.90;86.60;;;;;;5111946;28;20575;-75
2022/07/27 00:45:22;;;;;;;3.63;2.53;;;22.90;87.60;;;;;;5112127;28;20117;-75
2022/07/27 00:47:48;;;;;;;4.30;2.90;;;22.80;86.90;;;;;;5110913;28;20027;-75
2022/07/27 00:50:14;;;;;;;3.17;2.50;;;22.80;86.80;;;;;;5110809;28;20057;-75
2022/07/27 00:52:42;;;;;;;3.08;2.22;;;22.80;86.90;;;;;;5110889;28;20024;-75
2022/07/27 00:55:08;;;;;;;3.42;2.78;;;22.70;86.90;;;;;;5110760;28;20472;-76
2022/07/27 00:57:34;;;;;;;4.57;2.95;;;22.70;86.90;;;;;;5112147;28;20055;-75
2022/07/27 01:00:00;;;;;;;4.72;2.75;;;22.70;87.60;;;;;;5092358;28;20504;-75
2022/07/27 01:02:25;;;;;;;4.45;2.60;;;22.60;86.90;;;;;;5091673;28;20069;-75
2022/07/27 01:04:51;;;;;;;2.47;2.28;;;22.60;87.00;;;;;;5093624;28;20028;-75
2022/07/27 01:07:17;;;;;;;5.20;2.80;;;22.60;87.00;;;;;;5095708;28;20372;-75
2022/07/27 01:09:56;;;;;;;2.85;2.20;;;22.60;87.40;;;;;;5095447;28;20102;-75
2022/07/27 01:12:27;;;;;;;6.88;3.00;;;22.50;87.30;;;;;;5095441;28;20094;-75
2022/07/27 01:14:55;;;;;;;4.10;2.42;;;22.50;87.30;;;;;;5095312;28;20020;-75
2022/07/27 01:17:21;;;;;;;4.97;2.72;;;22.50;87.10;;;;;;5095358;28;20020;-75
2022/07/27 01:19:47;;;;;;;5.32;2.55;;;22.40;87.10;;;;;;5093914;28;20124;-75
2022/07/27 01:22:13;;;;;;;4.03;2.35;;;22.40;87.20;;;;;;5095065;28;20044;-75
2022/07/27 01:24:38;;;;;;;3.00;2.70;;;22.30;87.30;;;;;;5095331;28;20112;-75
2022/07/27 01:27:05;;;;;;;6.25;2.95;;;22.30;87.50;;;;;;5114514;28;20036;-75
2022/07/27 01:29:32;;;;;;;3.55;2.67;;;22.30;87.50;;;;;;5112384;28;20020;-75
2022/07/27 01:31:58;;;;;;;5.03;2.70;;;22.20;88.20;;;;;;5094874;28;20692;-75
2022/07/27 01:34:24;;;;;;;9.65;2.80;;;22.20;87.70;;;;;;5094896;28;20024;-75
2022/07/27 01:36:50;;;;;;;5.35;2.40;;;22.20;87.60;;;;;;5094857;28;20068;-75
2022/07/27 01:39:17;;;;;;;4.90;2.70;;;22.20;87.70;;;;;;5094877;28;20078;-75
2022/07/27 01:41:44;;;;;;;13.63;5.05;;;22.10;87.70;;;;;;5095014;28;20050;-75
2022/07/27 01:44:10;;;;;;;2.80;2.55;;;22.10;87.70;;;;;;5093474;28;20028;-75
2022/07/27 01:46:36;;;;;;;4.28;2.83;;;22.10;87.90;;;;;;5094764;28;20092;-75
2022/07/27 01:49:02;;;;;;;2.75;2.50;;;22.00;88.00;;;;;;5093629;28;20038;-75
2022/07/27 01:51:28;;;;;;;5.35;2.85;;;22.00;88.00;;;;;;5093419;28;20362;-75
2022/07/27 01:53:54;;;;;;;6.47;2.55;;;22.00;88.00;;;;;;5093277;28;20039;-75
2022/07/27 01:56:20;;;;;;;4.40;2.60;;;22.00;88.10;;;;;;5094407;28;20027;-75
2022/07/27 01:58:46;;;;;;;5.22;2.80;;;21.90;88.20;;;;;;5094474;28;20024;-75
2022/07/27 02:01:12;;;;;;;3.53;2.80;;;21.90;88.00;;;;;;5094436;28;20020;-75
2022/07/27 02:03:37;;;;;;;4.03;2.67;;;21.90;88.30;;;;;;5094429;28;20358;-75
2022/07/27 02:06:04;;;;;;;3.22;2.92;;;21.90;88.70;;;;;;5094355;28;20038;-75
2022/07/27 02:08:29;;;;;;;3.67;2.50;;;21.90;88.60;;;;;;5094353;28;20020;-75
2022/07/27 02:13:46;;;;;;;3.33;2.63;;;21.90;88.70;;;;;;5094864;28;20039;-75
2022/07/27 02:16:12;;;;;;;7.00;2.70;;;21.90;88.50;;;;;;5109788;28;20052;-75
2022/07/27 02:18:38;;;;;;;5.13;2.85;;;21.90;88.50;;;;;;5094102;28;20433;-75
2022/07/27 02:21:05;;;;;;;8.18;3.28;;;21.90;88.60;;;;;;5092575;28;20084;-75
2022/07/27 02:23:30;;;;;;;4.40;3.08;;;21.80;88.50;;;;;;5094020;28;20078;-75
2022/07/27 02:25:56;;;;;;;4.30;2.70;;;21.80;88.60;;;;;;5092666;28;20122;-75
2022/07/27 02:28:22;;;;;;;4.88;2.78;;;21.80;88.80;;;;;;5092451;28;20027;-75
2022/07/27 02:30:48;;;;;;;3.30;3.00;;;21.80;88.80;;;;;;5093658;28;20028;-75
2022/07/27 02:33:14;;;;;;;3.33;3.00;;;21.70;88.70;;;;;;5093740;28;20024;-75
2022/07/27 02:35:39;;;;;;;3.70;3.10;;;21.70;88.80;;;;;;5092341;28;20462;-75
2022/07/27 02:38:05;;;;;;;3.75;2.83;;;21.70;89.00;;;;;;5093980;28;20034;-75
2022/07/27 02:40:31;;;;;;;6.63;3.15;;;21.70;89.10;;;;;;5093577;28;20024;-76
2022/07/27 02:42:57;;;;;;;5.32;3.22;;;21.70;89.10;;;;;;5093612;28;20023;-75
2022/07/27 02:45:22;;;;;;;8.70;3.70;;;21.70;89.40;;;;;;5093451;28;20028;-75
2022/07/27 02:47:48;;;;;;;4.05;3.25;;;21.70;89.40;;;;;;5093577;28;20435;-75
2022/07/27 02:50:14;;;;;;;3.78;2.80;;;21.70;89.40;;;;;;5093677;28;20051;-75
2022/07/27 02:52:40;;;;;;;5.32;2.80;;;21.70;89.40;;;;;;5093474;28;20028;-75
2022/07/27 02:55:06;;;;;;;5.63;2.75;;;21.70;89.60;;;;;;5093323;28;20035;-76
2022/07/27 02:57:34;;;;;;;6.22;3.20;;;21.70;89.70;;;;;;5093230;28;20020;-75
2022/07/27 03:00:01;;;;;;;4.78;2.70;;;21.70;89.60;;;;;;5092968;28;20023;-75
2022/07/27 03:02:26;;;;;;;3.95;3.15;;;21.70;89.30;;;;;;5092836;28;20016;-75
2022/07/27 03:04:52;;;;;;;3.10;2.80;;;21.70;89.00;;;;;;5093210;28;20485;-75
2022/07/27 03:07:18;;;;;;;9.15;3.00;;;21.70;89.10;;;;;;5092899;28;20491;-75
2022/07/27 03:09:44;;;;;;;4.70;3.55;;;21.60;89.20;;;;;;5092966;28;20028;-75
2022/07/27 03:12:09;;;;;;;4.15;3.17;;;21.60;89.10;;;;;;5092900;28;20031;-75
2022/07/27 03:14:35;;;;;;;9.93;3.17;;;21.60;89.10;;;;;;5108480;28;20028;-75
2022/07/27 03:17:01;;;;;;;5.65;3.75;;;21.60;88.70;;;;;;5091751;28;20027;-75
2022/07/27 03:19:27;;;;;;;3.90;3.05;;;21.60;89.20;;;;;;5092738;28;20031;-75
2022/07/27 03:21:53;;;;;;;3.72;2.70;;;21.60;88.90;;;;;;5092654;28;20040;-75
2022/07/27 03:24:18;;;;;;;6.60;3.15;;;21.60;89.30;;;;;;5092612;28;20016;-75
2022/07/27 03:26:45;;;;;;;2.70;2.47;;;21.70;89.80;;;;;;5092165;28;20465;-75
2022/07/27 03:29:12;;;;;;;6.43;3.00;;;21.60;89.80;;;;;;5092664;28;20024;-75
2022/07/27 03:31:38;;;;;;;3.90;2.63;;;21.70;89.40;;;;;;5091440;28;20035;-74
2022/07/27 03:34:04;;;;;;;6.20;3.03;;;21.60;89.30;;;;;;5110523;28;20597;-75
2022/07/27 03:36:29;;;;;;;9.93;3.38;;;21.60;89.20;;;;;;5112850;28;20102;-75
2022/07/27 03:38:55;;;;;;;4.93;2.80;;;21.60;88.90;;;;;;5112962;28;20397;-75
2022/07/27 03:41:21;;;;;;;3.13;2.80;;;21.60;88.90;;;;;;5112883;28;20073;-77
2022/07/27 03:43:46;;;;;;;5.88;3.40;;;21.60;89.00;;;;;;5112779;28;20019;-77
2022/07/27 03:46:12;;;;;;;4.35;2.80;;;21.60;89.20;;;;;;5112781;28;20028;-75
2022/07/27 03:48:39;;;;;;;3.85;2.78;;;21.60;89.20;;;;;;5111483;28;20465;-77
2022/07/27 03:51:05;;;;;;;4.57;3.40;;;21.50;89.20;;;;;;5111380;28;20416;-75
2022/07/27 03:53:31;;;;;;;3.50;2.85;;;21.50;88.70;;;;;;5111252;28;20027;-75
2022/07/27 03:55:57;;;;;;;5.38;3.22;;;21.50;89.00;;;;;;5108876;28;20046;-75
2022/07/27 03:58:23;;;;;;;4.43;3.13;;;21.50;89.30;;;;;;5112120;27;20022;-75
2022/07/27 04:00:49;;;;;;;3.65;3.00;;;21.50;89.60;;;;;;5092116;28;20020;-75
2022/07/27 04:03:16;;;;;;;5.05;2.75;;;21.50;89.70;;;;;;5092065;28;20358;-75
2022/07/27 04:05:42;;;;;;;4.68;2.95;;;21.60;90.00;;;;;;5092010;28;20023;-75
2022/07/27 04:08:07;;;;;;;4.15;3.17;;;21.60;90.10;;;;;;5111994;27;20035;-75
2022/07/27 04:10:33;;;;;;;4.63;3.50;;;21.60;90.20;;;;;;5126752;27;20532;-75
2022/07/27 04:12:59;;;;;;;3.53;3.15;;;21.70;90.30;;;;;;5092522;28;20443;-75
2022/07/27 04:15:25;;;;;;;3.78;3.10;;;21.70;90.40;;;;;;5090493;28;20101;-75
2022/07/27 04:17:52;;;;;;;4.38;3.25;;;21.80;90.50;;;;;;5091918;28;20021;-75
2022/07/27 04:20:18;;;;;;;4.68;3.30;;;21.80;90.40;;;;;;5116450;28;20020;-75
2022/07/27 04:22:43;;;;;;;8.93;3.25;;;21.90;90.40;;;;;;5121923;28;20380;-76
2022/07/27 04:25:10;;;;;;;6.43;3.25;;;21.90;90.30;;;;;;5126589;28;20023;-75
2022/07/27 04:27:36;;;;;;;3.92;3.03;;;21.90;90.30;;;;;;5090851;28;20028;-75
2022/07/27 04:30:03;;;;;;;6.05;2.70;;;22.00;90.50;;;;;;5103583;28;20438;-75
2022/07/27 04:32:29;;;;;;;4.75;3.17;;;22.00;90.50;;;;;;5111996;28;20085;-75
2022/07/27 04:34:54;;;;;;;4.03;2.92;;;22.10;90.60;;;;;;5112032;28;20036;-75
2022/07/27 04:37:20;;;;;;;4.57;3.33;;;22.10;90.70;;;;;;5112267;28;20026;-75
2022/07/27 04:39:46;;;;;;;5.28;3.28;;;22.20;90.80;;;;;;5114068;28;20471;-75
2022/07/27 04:42:12;;;;;;;4.32;3.38;;;22.20;90.80;;;;;;5115511;28;20031;-75
2022/07/27 04:44:38;;;;;;;5.13;3.40;;;22.30;90.80;;;;;;5116159;28;20107;-75
2022/07/27 04:47:03;;;;;;;3.40;2.83;;;22.40;90.90;;;;;;5114804;28;20127;-75
2022/07/27 04:49:29;;;;;;;5.15;3.38;;;22.50;90.90;;;;;;5103386;28;20035;-75
2022/07/27 04:51:55;;;;;;;8.43;3.35;;;22.50;90.70;;;;;;5095747;28;20427;-75
2022/07/27 04:54:20;;;;;;;9.43;3.33;;;22.60;90.70;;;;;;5095575;28;20027;-75
2022/07/27 04:56:46;;;;;;;9.45;3.20;;;22.60;90.60;;;;;;5095907;28;20071;-75
2022/07/27 04:59:12;;;;;;;3.83;3.20;;;22.60;90.50;;;;;;5095575;28;20468;-75
2022/07/27 05:01:38;;;;;;;4.18;3.00;;;22.70;90.40;;;;;;5095568;28;20024;-75
2022/07/27 05:04:04;;;;;;;5.80;3.30;;;22.70;90.30;;;;;;5094110;28;20044;-75
2022/07/27 05:06:31;;;;;;;4.40;3.20;;;22.70;90.10;;;;;;5095277;28;20032;-75
2022/07/27 05:08:58;;;;;;;12.10;3.00;;;22.70;90.30;;;;;;5134337;27;20424;-75
2022/07/27 05:11:23;;;;;;;3.38;2.88;;;22.80;90.70;;;;;;5136194;27;20034;-75
2022/07/27 05:13:49;;;;;;;4.15;3.08;;;22.90;91.00;;;;;;5136255;27;20023;-75
2022/07/27 05:16:15;;;;;;;9.88;4.50;;;23.00;91.20;;;;;;5136126;27;20117;-75
2022/07/27 05:18:41;;;;;;;4.22;3.17;;;23.10;91.00;;;;;;5136052;27;20087;-75
2022/07/27 05:21:08;;;;;;;7.47;3.55;;;23.20;90.80;;;;;;5134616;27;20089;-75
2022/07/27 05:23:34;;;;;;;9.25;3.22;;;23.20;90.80;;;;;;5135952;27;20019;-75
2022/07/27 05:26:00;;;;;;;4.22;3.60;;;23.40;90.90;;;;;;5111226;28;20074;-75
2022/07/27 05:28:26;;;;;;;4.82;3.72;;;23.40;91.10;;;;;;5113261;28;20380;-75
2022/07/27 05:30:52;;;;;;;12.38;3.72;;;23.50;91.10;;;;;;5111161;27;20027;-75
2022/07/27 05:33:18;;;;;;;4.57;3.50;;;23.60;90.90;;;;;;5105785;28;20073;-75
2022/07/27 05:35:44;;;;;;;4.03;3.30;;;23.70;90.90;;;;;;5114949;28;20036;-75
2022/07/27 05:38:10;;;;;;;7.28;4.10;;;23.70;90.80;;;;;;5094963;28;20028;-75
2022/07/27 05:40:35;;;;;;;5.60;4.32;;;23.80;90.80;;;;;;5094523;28;20027;-75
2022/07/27 05:43:01;;;;;;;7.50;5.10;;;24.00;90.60;;;;;;5093250;28;20028;-75
2022/07/27 05:45:27;;;;;;;12.02;4.88;;;24.00;90.10;;;;;;5106781;27;20042;-75
2022/07/27 05:47:57;;;;;;;9.35;5.75;;;24.10;90.10;;;;;;5120945;27;20110;-75
2022/07/27 05:50:23;;;;;;;9.57;4.90;;;24.10;90.00;;;;;;5122347;27;20552;-75
2022/07/27 05:52:49;;;;;;;9.02;5.00;;;24.20;90.20;;;;;;5121423;27;20020;-75
2022/07/27 05:55:15;;;;;;;6.65;4.95;;;24.30;90.40;;;;;;5129766;27;20435;-75
2022/07/27 05:57:40;;;;;;;10.77;5.18;;;24.40;90.30;;;;;;5121610;27;20093;-75
2022/07/27 06:00:09;;;;;;;8.25;5.07;;;24.50;89.80;;;;;;5123503;27;20380;-75
2022/07/27 06:02:34;;;;;;;8.07;5.20;;;24.50;89.20;;;;;;5123540;27;20072;-75
2022/07/27 06:05:00;;;;;;;11.48;5.13;;;24.60;88.70;;;;;;5121016;27;20020;-75
2022/07/27 06:10:10;;;;;;;6.85;4.95;;;24.70;88.50;;;;;;5123041;27;20035;-75
2022/07/27 06:12:41;;;;;;;10.10;5.55;;;24.70;88.70;;;;;;5123466;27;20031;-75
2022/07/27 06:15:08;;;;;;;16.45;5.28;;;24.70;87.40;;;;;;5101526;28;20024;-79
2022/07/27 06:17:35;;;;;;;8.63;6.00;;;24.80;88.30;;;;;;5095320;28;20028;-76
2022/07/27 06:20:06;;;;;;;8.60;6.60;;;24.80;87.60;;;;;;5094732;28;20020;-76
2022/07/27 06:22:32;;;;;;;11.02;6.63;;;24.80;85.60;;;;;;5095847;28;20389;-72
2022/07/27 06:24:58;;;;;;;9.93;5.70;;;24.80;87.60;;;;;;5094846;28;20385;-75
2022/07/27 06:27:24;;;;;;;10.45;6.95;;;24.80;87.10;;;;;;5106786;27;20030;-75
2022/07/27 06:29:50;;;;;;;11.20;6.55;;;24.90;86.10;;;;;;5135744;27;20426;-75
2022/07/27 06:32:16;;;;;;;17.40;6.47;;;24.90;86.80;;;;;;5113318;27;20335;-75
2022/07/27 06:34:42;;;;;;;7.85;5.82;;;25.00;87.30;;;;;;5108411;27;20023;-75
2022/07/27 06:37:07;;;;;;;8.27;6.45;;;25.00;85.90;;;;;;5115127;28;20026;-75
2022/07/27 06:39:33;;;;;;;8.27;6.45;;;25.00;84.40;;;;;;5115354;28;20051;-75
2022/07/27 06:41:59;;;;;;;9.68;6.70;;;25.00;84.90;;;;;;5099731;28;20032;-70
2022/07/27 06:44:25;;;;;;;9.98;7.25;;;25.00;85.20;;;;;;5115638;27;20031;-70
2022/07/27 06:46:50;;;;;;;9.27;6.32;;;25.00;84.20;;;;;;5110607;28;20016;-75
2022/07/27 06:49:16;;;;;;;13.02;6.53;;;25.10;85.90;;;;;;5094427;27;20020;-71
2022/07/27 06:51:42;;;;;;;12.73;6.82;;;25.20;86.30;;;;;;5094581;28;20023;-72
2022/07/27 06:54:07;;;;;;;14.77;7.20;;;25.20;83.60;;;;;;5093044;28;20020;-73
2022/07/27 06:56:33;;;;;;;9.90;6.03;;;25.10;80.90;;;;;;5094532;28;20031;-72
2022/07/27 06:58:59;;;;;;;11.35;7.18;;;25.10;79.90;;;;;;5094298;28;20099;-72
2022/07/27 07:01:25;;;;;;;10.15;7.28;;;25.10;80.60;;;;;;5093776;28;20021;-70
2022/07/27 07:03:51;;;;;;;9.93;7.43;;;25.10;80.50;;;;;;5094026;28;20108;-72
2022/07/27 07:06:16;;;;;;;11.43;8.77;;;25.10;80.90;;;;;;5094177;28;20024;-72
2022/07/27 07:08:42;;;;;;;12.68;9.73;;;25.20;81.80;;;;;;5094030;28;20032;-73
2022/07/27 07:11:10;;;;;;;14.27;10.15;;;25.10;79.80;;;;;;5094043;28;20024;-70
2022/07/27 07:13:36;;;;;;;14.48;10.07;;;25.20;80.10;;;;;;5092699;28;20024;-71
2022/07/27 07:16:02;;;;;;;11.63;8.80;;;25.20;80.00;;;;;;5109523;28;20595;-71
2022/07/27 07:18:31;;;;;;;15.35;9.77;;;25.20;80.50;;;;;;5114374;28;20094;-71
2022/07/27 07:20:57;;;;;;;13.10;9.50;;;25.30;78.10;;;;;;5112526;28;20123;-72
2022/07/27 07:23:23;;;;;;;13.07;9.88;;;25.30;77.30;;;;;;5093860;28;20087;-74
2022/07/27 07:25:49;;;;;;;14.73;9.45;;;25.40;79.60;;;;;;5092844;28;20036;-72
2022/07/27 07:28:15;;;;;;;18.75;11.30;;;25.50;79.30;;;;;;5093876;28;20385;-71
2022/07/27 07:30:41;;;;;;;16.67;12.10;;;25.60;77.30;;;;;;5093620;28;20030;-74
2022/07/27 07:33:07;;;;;;;18.38;11.85;;;25.60;75.10;;;;;;5092694;28;20444;-73
2022/07/27 07:35:33;;;;;;;17.48;12.45;;;25.70;72.80;;;;;;5093580;28;20130;-71
2022/07/27 07:37:59;;;;;;;19.13;12.60;;;25.70;71.80;;;;;;5093652;28;20030;-72
2022/07/27 07:40:24;;;;;;;17.60;14.15;;;25.90;73.50;;;;;;5092227;28;20500;-73
2022/07/27 07:42:56;;;;;;;16.65;13.55;;;25.90;69.60;;;;;;5092016;28;20020;-74
2022/07/27 07:45:22;;;;;;;20.30;13.32;;;26.00;69.30;;;;;;5093405;28;20095;-72
2022/07/27 07:47:49;;;;;;;19.38;13.35;;;26.00;70.00;;;;;;5109033;28;20038;-73
2022/07/27 07:50:15;;;;;;;18.25;13.90;;;26.10;71.30;;;;;;5093342;28;20052;-71
2022/07/27 07:52:41;;;;;;;18.02;13.82;;;26.20;69.90;;;;;;5093185;28;20051;-71
2022/07/27 07:55:08;;;;;;;18.45;13.95;;;26.30;70.30;;;;;;5093544;28;20024;-74
2022/07/27 07:57:34;;;;;;;18.10;13.48;;;26.50;70.10;;;;;;5093264;28;20031;-71
2022/07/27 07:59:59;;;;;;;17.20;12.65;;;26.60;69.50;;;;;;5093169;28;20012;-71
2022/07/27 08:02:25;;;;;;;18.80;14.10;;;26.80;67.80;;;;;;5093216;28;20016;-71
2022/07/27 08:04:51;;;;;;;17.30;13.32;;;26.90;67.40;;;;;;5093203;28;20504;-70
2022/07/27 08:07:17;;;;;;;15.55;12.82;;;27.10;68.50;;;;;;5093253;28;20086;-72
2022/07/27 08:09:43;;;;;;;16.75;12.52;;;27.30;68.80;;;;;;5093140;28;20028;-73
2022/07/27 08:12:09;;;;;;;18.08;12.73;;;27.50;66.40;;;;;;5091919;28;20441;-73
2022/07/27 08:14:35;;;;;;;18.33;12.63;;;27.70;65.40;;;;;;5092977;28;20067;-71
2022/07/27 08:17:00;;;;;;;15.52;11.88;;;27.80;63.40;;;;;;5093097;28;20055;-72
2022/07/27 08:19:26;;;;;;;17.17;11.50;;;28.00;63.90;;;;;;5092983;28;20096;-74
2022/07/27 08:21:52;;;;;;;16.33;12.35;;;28.10;64.60;;;;;;5091437;28;20070;-71
2022/07/27 08:24:18;;;;;;;18.70;12.05;;;28.20;62.70;;;;;;5093037;28;20017;-73
2022/07/27 08:26:43;;;;;;;12.63;11.00;;;28.30;61.40;;;;;;5093402;28;20469;-73
2022/07/27 08:29:09;;;;;;;14.00;10.75;;;28.40;63.20;;;;;;5105746;28;20024;-74
2022/07/27 08:31:36;;;;;;;13.40;9.80;;;28.50;61.80;;;;;;5113338;28;20105;-72
2022/07/27 08:34:02;;;;;;;18.55;9.48;;;28.60;58.70;;;;;;5113358;28;20430;-71
2022/07/27 08:36:27;;;;;;;16.73;9.38;;;28.70;59.90;;;;;;5113287;28;20027;-72
2022/07/27 08:38:53;;;;;;;14.05;10.55;;;28.70;60.90;;;;;;5113328;28;20016;-73
2022/07/27 08:41:21;;;;;;;13.45;10.40;;;28.80;60.30;;;;;;5113340;28;20034;-73
2022/07/27 08:43:47;;;;;;;14.60;11.77;;;28.80;61.00;;;;;;5113337;28;20019;-74
2022/07/27 08:46:16;;;;;;;20.80;11.70;;;28.90;59.80;;;;;;5113165;28;20106;-73
2022/07/27 08:48:43;;;;;;;15.70;11.23;;;28.90;57.50;;;;;;5113190;28;20038;-74
2022/07/27 08:51:11;;;;;;;14.38;10.80;;;29.10;58.30;;;;;;5111780;28;20028;-73
2022/07/27 08:53:36;;;;;;;22.27;12.10;;;29.10;58.40;;;;;;5113183;28;20050;-71
2022/07/27 08:56:02;;;;;;;13.55;11.02;;;29.20;58.80;;;;;;5110270;28;20020;-74
2022/07/27 08:58:28;;;;;;;14.73;10.65;;;29.30;59.10;;;;;;5108442;28;20020;-70
2022/07/27 09:00:54;;;;;;;18.15;11.63;;;29.50;57.70;;;;;;5092723;28;20514;-74
2022/07/27 09:03:22;;;;;;;14.13;11.00;;;29.60;59.30;;;;;;5092550;28;20081;-71
2022/07/27 09:05:54;;;;;;;12.65;10.45;;;29.70;58.20;;;;;;5091344;28;20028;-73
2022/07/27 09:08:23;;;;;;;14.10;10.27;;;29.90;57.10;;;;;;5092632;28;20024;-72
2022/07/27 09:10:50;;;;;;;14.82;10.23;;;30.00;57.30;;;;;;5092908;28;20024;-70
2022/07/27 09:13:30;;;;;;;12.18;9.70;;;30.20;57.10;;;;;;5092560;28;20077;-73
2022/07/27 09:16:08;;;;;;;13.32;10.18;;;30.30;57.00;;;;;;5092439;28;20020;-72
2022/07/27 09:18:38;;;;;;;14.20;10.65;;;30.40;56.10;;;;;;5092433;28;20031;-72
2022/07/27 09:21:17;;;;;;;15.18;10.75;;;30.60;57.10;;;;;;5092257;28;20506;-70
2022/07/27 09:23:46;;;;;;;13.68;11.38;;;30.70;55.20;;;;;;5092360;28;20024;-73
2022/07/27 09:26:13;;;;;;;14.93;10.85;;;30.80;54.60;;;;;;5094191;28;20039;-72
2022/07/27 09:28:39;;;;;;;19.25;10.27;;;30.90;54.00;;;;;;5116478;28;20031;-71
2022/07/27 09:31:07;;;;;;;17.35;9.63;;;31.00;54.40;;;;;;5115024;28;20455;-71
2022/07/27 09:33:47;;;;;;;18.65;9.90;;;31.00;51.30;;;;;;5116336;28;20040;-71
2022/07/27 09:36:15;;;;;;;15.63;9.75;;;31.10;52.00;;;;;;5114781;28;20386;-72
2022/07/27 09:39:06;;;;;;;13.18;9.07;;;31.20;51.70;;;;;;5116593;28;20020;-74
2022/07/27 09:41:43;;;;;;;12.43;9.02;;;31.20;51.00;;;;;;5116189;28;20011;-73
2022/07/27 09:44:09;;;;;;;14.75;8.63;;;31.30;49.80;;;;;;5116143;28;20411;-70
2022/07/27 09:46:38;;;;;;;13.30;10.05;;;31.40;48.10;;;;;;5116098;28;20059;-73
2022/07/27 09:49:05;;;;;;;12.43;8.95;;;31.40;46.80;;;;;;5116046;28;20477;-72
2022/07/27 09:51:31;;;;;;;12.73;8.65;;;31.40;47.40;;;;;;5116001;28;20443;-73
2022/07/27 09:54:05;;;;;;;15.45;8.82;;;31.50;46.70;;;;;;5115985;28;20024;-73
2022/07/27 09:56:31;;;;;;;15.65;9.27;;;31.70;46.10;;;;;;5109770;28;20019;-74
2022/07/27 09:58:59;;;;;;;12.45;9.57;;;31.80;45.00;;;;;;5095442;28;20481;-74
2022/07/27 10:01:27;;;;;;;15.43;8.32;;;31.90;44.00;;;;;;5095256;28;20032;-72
2022/07/27 10:03:57;;;;;;;13.57;9.18;;;32.00;42.80;;;;;;5095207;28;20027;-75
2022/07/27 10:06:24;;;;;;;14.93;9.25;;;32.00;43.00;;;;;;5095409;28;20020;-73
2022/07/27 10:08:51;;;;;;;20.00;9.52;;;32.00;43.50;;;;;;5095288;28;20389;-71
2022/07/27 10:11:19;;;;;;;11.00;8.80;;;32.00;42.60;;;;;;5095323;28;20024;-72
2022/07/27 10:13:46;;;;;;;13.55;9.68;;;32.10;43.00;;;;;;5095065;28;20032;-75
2022/07/27 10:16:20;;;;;;;11.02;9.55;;;32.10;42.60;;;;;;5095044;28;20569;-71
2022/07/27 10:19:01;;;;;;;13.55;9.25;;;32.10;41.60;;;;;;5095105;28;20396;-73
2022/07/27 10:21:28;;;;;;;21.98;9.43;;;32.10;41.90;;;;;;5094796;28;20439;-70
2022/07/27 10:24:02;;;;;;;14.48;10.07;;;32.10;42.30;;;;;;5094983;28;20024;-71
2022/07/27 10:26:32;;;;;;;16.73;10.05;;;32.10;41.30;;;;;;5095167;28;20111;-74
2022/07/27 10:29:02;;;;;;;13.43;9.95;;;32.10;41.10;;;;;;5104708;28;20485;-73
2022/07/27 10:31:36;;;;;;;13.32;9.63;;;32.10;41.10;;;;;;5115170;27;20049;-72
2022/07/27 10:34:04;;;;;;;18.48;8.82;;;32.10;41.00;;;;;;5115427;28;20426;-74
2022/07/27 10:36:29;;;;;;;14.25;9.23;;;32.10;41.40;;;;;;5114161;28;20439;-72
2022/07/27 10:38:57;;;;;;;14.65;9.80;;;32.20;41.70;;;;;;5114867;28;20058;-72
2022/07/27 10:41:31;;;;;;;14.20;9.20;;;32.20;40.00;;;;;;5113882;28;20379;-74
2022/07/27 10:44:17;;;;;;;10.90;8.85;;;32.10;40.90;;;;;;5114776;28;20068;-73
2022/07/27 10:46:49;;;;;;;15.05;10.38;;;32.20;42.70;;;;;;5114869;28;20051;-74
2022/07/27 10:49:20;;;;;;;12.05;9.15;;;32.20;40.10;;;;;;5113623;28;20059;-73
2022/07/27 10:51:47;;;;;;;12.73;9.82;;;32.30;41.00;;;;;;5114857;28;20024;-73
2022/07/27 10:54:25;;;;;;;14.82;10.30;;;32.40;41.20;;;;;;5114695;28;20020;-73
2022/07/27 10:56:53;;;;;;;12.95;8.88;;;32.50;40.20;;;;;;5106620;28;20032;-70
2022/07/27 10:59:37;;;;;;;11.90;9.30;;;32.70;40.70;;;;;;5094233;28;20016;-74
2022/07/27 11:02:05;;;;;;;15.45;10.57;;;32.80;41.40;;;;;;5094306;28;20016;-71
2022/07/27 11:04:32;;;;;;;19.65;10.20;;;32.90;39.50;;;;;;5094143;28;20440;-72
2022/07/27 11:07:00;;;;;;;16.00;9.73;;;33.00;39.40;;;;;;5092883;28;20488;-70
2022/07/27 11:09:41;;;;;;;13.60;10.10;;;33.10;38.40;;;;;;5094087;28;20466;-74
2022/07/27 11:12:10;;;;;;;14.77;9.38;;;33.20;38.80;;;;;;5094106;28;20047;-71
2022/07/27 11:14:50;;;;;;;18.95;9.23;;;33.20;38.30;;;;;;5093888;28;20469;-73
2022/07/27 11:17:21;;;;;;;12.85;10.25;;;33.30;38.90;;;;;;5093954;28;20077;-74
2022/07/27 11:20:01;;;;;;;12.32;8.95;;;33.40;37.60;;;;;;5093996;28;20469;-73
2022/07/27 11:22:33;;;;;;;16.50;9.18;;;33.50;38.10;;;;;;5093814;28;20090;-74
2022/07/27 11:25:00;;;;;;;12.00;9.07;;;33.70;37.60;;;;;;5092425;28;20035;-73
2022/07/27 11:27:27;;;;;;;14.05;9.07;;;33.70;37.40;;;;;;5105117;28;20384;-73
2022/07/27 11:29:53;;;;;;;13.77;9.50;;;33.90;38.00;;;;;;5112884;28;20481;-74
2022/07/27 11:32:20;;;;;;;12.48;9.13;;;34.10;37.10;;;;;;5112755;28;20036;-73
2022/07/27 11:34:46;;;;;;;13.77;9.38;;;34.20;36.10;;;;;;5113755;28;20380;-72
2022/07/27 11:37:17;;;;;;;10.68;8.32;;;34.30;35.10;;;;;;5113980;28;20017;-74
2022/07/27 11:39:44;;;;;;;13.80;8.95;;;34.40;36.20;;;;;;5113897;28;20011;-75
2022/07/27 11:42:10;;;;;;;26.35;8.60;;;34.40;35.30;;;;;;5112642;28;20107;-71
2022/07/27 11:44:41;;;;;;;10.45;7.55;;;34.40;35.20;;;;;;5113904;28;20015;-73
2022/07/27 11:47:07;;;;;;;11.73;7.85;;;34.50;35.10;;;;;;5112635;28;20358;-73
2022/07/27 11:49:34;;;;;;;10.88;8.23;;;34.40;34.20;;;;;;5113400;28;20024;-74
2022/07/27 11:52:08;;;;;;;8.57;7.32;;;34.50;34.60;;;;;;5112492;28;20023;-72
2022/07/27 11:54:39;;;;;;;10.68;7.72;;;34.60;34.20;;;;;;5112460;28;20114;-73
2022/07/27 11:57:11;;;;;;;9.77;7.32;;;34.70;33.60;;;;;;5101569;28;20035;-74
2022/07/27 11:59:39;;;;;;;8.95;7.25;;;34.80;33.70;;;;;;5092001;28;20031;-71
2022/07/27 12:02:12;;;;;;;9.30;7.20;;;34.80;33.80;;;;;;5093297;28;20016;-71
2022/07/27 12:04:40;;;;;;;12.40;7.28;;;34.90;33.50;;;;;;5091849;28;20029;-71
2022/07/27 12:07:11;;;;;;;11.60;7.07;;;34.90;33.50;;;;;;5108868;28;20457;-74
2022/07/27 12:10:00;;;;;;;11.07;7.72;;;35.00;33.50;;;;;;5091920;28;20039;-73
2022/07/27 12:12:31;;;;;;;13.60;7.57;;;35.00;31.90;;;;;;5091913;28;20024;-72
2022/07/27 12:15:00;;;;;;;12.18;8.15;;;34.90;32.10;;;;;;5092886;28;20105;-73
2022/07/27 12:17:31;;;;;;;10.10;7.50;;;34.90;33.40;;;;;;5093075;28;20039;-73
2022/07/27 12:20:08;;;;;;;12.30;7.00;;;34.90;33.00;;;;;;5092988;28;20081;-71
2022/07/27 12:22:36;;;;;;;13.68;8.13;;;35.00;33.10;;;;;;5092839;28;20032;-71
2022/07/27 12:25:09;;;;;;;12.35;7.72;;;35.00;31.30;;;;;;5091673;28;20028;-74
2022/07/27 12:27:36;;;;;;;8.32;6.70;;;35.00;31.30;;;;;;5091864;28;20047;-72
2022/07/27 12:30:09;;;;;;;19.98;7.55;;;35.00;31.50;;;;;;5091635;28;20028;-72
2022/07/27 12:32:44;;;;;;;;;;;35.00;30.00;;;;;;5093309;28;20418;-71
2022/07/27 12:35:19;;;;;;;9.32;5.55;;;35.10;33.60;;;;;;5092695;28;19915;-72
2022/07/27 12:37:45;;;;;;;9.75;6.15;;;35.20;30.80;;;;;;5091895;28;20389;-75
2022/07/27 12:40:16;;;;;;;8.15;5.72;;;35.30;30.80;;;;;;5092880;28;20483;-74
2022/07/27 12:42:43;;;;;;;7.93;5.60;;;35.40;30.70;;;;;;5092886;28;20028;-71
2022/07/27 12:45:20;;;;;;;8.52;5.45;;;35.50;30.40;;;;;;5092871;28;20099;-71
2022/07/27 12:47:47;;;;;;;6.38;5.10;;;35.50;29.80;;;;;;5092842;28;20016;-71